Biggs Army Air Field (Fort Bliss) Fort Bliss,El Paso US
ICAO: KBIF
IATA: BIF
Category: Medium
Scheduled Services: No

Elevation: 3946 ft
TransAlt. 18000 ft.

Airport Communications:
EL PASO APP:119.15
EL PASO CLNC DEL:125
EL PASO DEP:121.3
GND:121.6
ANG OPS:49.95
PTD:122.7
TWR:127.9

KBIF Zoom In..

If you have problems with the map follow the link
https://www.worldairports.se/pages/airport.php?
ICAO=KBIF

Runways:

(A) RW 03 length 13554 ft width 150 ft
---- / hdg 32

(B) RW 21 length 13554 ft width 150 ft
---- / hdg 212

Location; KBIF
Day. 22 / Time. 15.58 Zulu
* Altimeter: 29.86
* Temperature: 07° c. 44.6°f.
* Wind from: 000° Speed 00 kn.
Dewpoint: -10° c.
Visibility: 9 Statute Miles.
Clouds: Clear (automated report).

KBIF 221558Z AUTO 00000KT 9SM CLR 07/M10 A2986 RMK AO2 SLP087 T00711098 $


Wind - Calm.

 
 
jpsmedia.com for Web Design worldairports.se 2019   terms of use